AirNav   Duncan Aviation - Near you to keep you flying
 
 1050 users online  

9MO5 Wakefield Wings Airport
Sparta, Missouri, USA

GOING TO SPARTA?


FAA INFORMATION EFFECTIVE 03 NOVEMBER 2022

Location

FAA Identifier: 9MO5
Lat/Long: 37-03-45.0000N 093-05-54.2500W
37-03.750000N 093-05.904167W
37.0625000,-93.0984028
(estimated)
Elevation: 1380 ft. / 421 m (estimated)
Variation: 04E (1985)
From city: 3 miles NW of SPARTA, MO
Time zone: UTC -6 (UTC -5 during Daylight Saving Time)
Zip code: 65753

Airport Operations

Airport use: Private use. Permission required prior to landing
Activation date: 12/1972
Control tower: no
ARTCC: KANSAS CITY CENTER
FSS: COLUMBIA FLIGHT SERVICE STATION
Attendance: UNATNDD
Wind indicator: no
Segmented circle: no

Airport Communications

WX ASOS at SGF (18 nm NW): PHONE 417-863-6158

Nearby radio navigation aids

VOR radial/distance  VOR name  Freq  Var
DGDr281/10.9DOGWOOD VORTAC109.4001E
SGFr143/20.9SPRINGFIELD VORTAC116.9004E

Airport Services

Runway Information

Runway 18/36

Dimensions: 2300 x 60 ft. / 701 x 18 m
Surface: turf
RUNWAY 18  RUNWAY 36
Traffic pattern: leftleft

Airport Ownership and Management from official FAA records

Ownership: Privately-owned
Owner: BRAD WAKEFIELD
201 MISSION POINT ROAD
ROGERSVILLE, MO 65742
Phone (417) 860-2040
Manager: BRAD WAKEFIELD
201 MISSION POINT ROAD
ROGERSVILLE, MO 65742
Phone 417-860-2040

Airport Operational Statistics

Aircraft based on the field: 1
Single engine airplanes: 1
    

Additional Remarks

FOR CD CTC SPRINGFIELD APCH AT 417-868-5620/5619.

Instrument Procedures

There are no published instrument procedures at 9MO5.

Some nearby airports with instrument procedures:

3DW - Downtown Airport (12 nm NW)
KSGF - Springfield-Branson National Airport (18 nm NW)
KAOV - Ava Bill Martin Memorial Airport (21 nm E)
KFWB - Branson West Municipal Airport - Emerson Field (26 nm SW)
KPLK - M Graham Clark Downtown Airport (27 nm S)
 
Loc | Ops | Rwys | IFR | FBO | Links
Com | Nav | Svcs | Stats | Notes

Branson Jet Center
AirBoss

 
Area around 9MO5 (Wakefield Wings Airport)
 
Road maps at: MapQuest Bing Google
 
Aerial photo
No photo
 
Sectional chart

 
Airport distance calculator
Flying to Wakefield Wings Airport? Find the distance to fly.

From to 9MO5

Sunrise and sunset
Times for 29-Nov-2022
 Local
(UTC-6)
 Zulu
(UTC)
Morning civil twilight06:3812:38
Sunrise07:0613:06
Sunset16:5522:55
Evening civil twilight17:2423:24

Current date and time
Zulu (UTC)  30-Nov-2022 00:20:22
Local (UTC-6)  29-Nov-2022 18:20:22
 
METAR
KSGF 
17nm NW 
292352Z 30014G24KT 10SM CLR 06/01 A2976 RMK AO2 PK WND 32032/2319 SLP080 T00560011 10211 20056 53066
KFWB 
26nm SW 
292355Z AUTO 31008G17KT 270V010 10SM CLR 10/04 A2975 RMK AO2
KBBG 
32nm S 
292345Z 30008KT 10SM SCT065 14/06 A2971
TAF
KSGF 
17nm NW 
291720Z 2918/3018 21025G35KT P6SM BKN035 FM292000 25021G32KT P6SM SCT035 FM292300 29022G30KT P6SM SCT035 FM300900 31010KT P6SM SKC
NOTAMs
Click for the latest NOTAMs
NOTAMs are issued by the DoD/FAA and will open in a separate window not controlled by AirNav.

 

 
 

Would you like to see your business listed on this page?

 If your business provides an interesting product or service to pilots, flight crews, aircraft, or users of the Wakefield Wings Airport, you should consider listing it here.  To start the listing process, click on the button below
 
Add a business
 

Other Pages about Wakefield Wings Airport

Update a link
 
Copyright © AirNav, LLC. All rights reserved. Privacy Policy  Contact